Time;durP1;ratioP1;P1;durP2;ratioP2;P2;SDS_P1;SDS_P2;PMS_P1;PMS_P2;Temp;Humidity;BMP_temperature;BMP_pressure;BME280_temperature;BME280_humidity;BME280_pressure;Samples;Min_cycle;Max_cycle;Signal;HPM_P1;HPM_P2
2022/01/18 00:02:27;;;;;;;67.85;42.05;;;25.80;99.90;;;;;;5061900;28;20040;-71
2022/01/18 00:04:54;;;;;;;57.20;40.40;;;25.80;99.90;;;;;;5053762;28;20122;-70
2022/01/18 00:07:21;;;;;;;59.58;38.80;;;25.80;99.90;;;;;;5061568;28;20075;-71
2022/01/18 00:09:49;;;;;;;63.35;41.08;;;25.80;99.90;;;;;;5069809;28;20029;-70
2022/01/18 00:15:16;;;;;;;58.40;39.10;;;25.70;99.90;;;;;;5073144;28;20040;-71
2022/01/18 00:17:43;;;;;;;65.53;41.15;;;25.70;99.90;;;;;;5063041;28;20404;-71
2022/01/18 00:20:17;;;;;;;57.78;38.05;;;25.70;99.90;;;;;;5053852;28;20025;-71
2022/01/18 00:22:43;;;;;;;62.38;40.55;;;25.70;99.90;;;;;;5066151;28;20044;-71
2022/01/18 00:25:10;;;;;;;57.10;38.75;;;25.70;99.90;;;;;;5056008;28;20021;-71
2022/01/18 00:27:37;;;;;;;61.05;38.92;;;25.70;99.90;;;;;;5074185;28;20040;-71
2022/01/18 00:30:21;;;;;;;61.50;40.38;;;25.80;99.90;;;;;;5060094;28;20048;-72
2022/01/18 00:33:00;;;;;;;57.63;38.53;;;25.80;99.90;;;;;;5055757;28;20566;-70
2022/01/18 00:35:32;;;;;;;59.50;40.00;;;25.80;99.90;;;;;;5073736;28;20052;-71
2022/01/18 00:37:59;;;;;;;52.45;37.00;;;25.80;99.90;;;;;;5061043;28;20029;-71
2022/01/18 00:40:26;;;;;;;53.30;35.85;;;25.80;99.90;;;;;;5063540;28;20032;-71
2022/01/18 00:42:53;;;;;;;55.88;37.45;;;25.80;99.90;;;;;;5072053;28;20052;-72
2022/01/18 00:45:20;;;;;;;51.15;37.65;;;25.90;99.90;;;;;;5064143;28;20048;-71
2022/01/18 00:47:46;;;;;;;54.22;38.58;;;25.90;99.90;;;;;;5054551;28;20024;-71
2022/01/18 00:50:13;;;;;;;50.97;35.10;;;26.00;99.90;;;;;;5055476;28;20473;-70
2022/01/18 00:52:42;;;;;;;54.97;39.33;;;26.00;99.90;;;;;;5073179;28;20029;-70
2022/01/18 00:55:11;;;;;;;52.55;36.40;;;26.10;99.90;;;;;;5073625;28;20024;-71
2022/01/18 00:57:38;;;;;;;65.90;42.33;;;26.10;99.90;;;;;;5057466;28;20086;-68
2022/01/18 01:00:05;;;;;;;60.55;38.60;;;26.10;99.90;;;;;;5066324;28;20481;-72
2022/01/18 01:02:32;;;;;;;57.80;38.08;;;26.20;99.90;;;;;;5054222;28;20025;-71
2022/01/18 01:04:59;;;;;;;58.63;39.55;;;26.20;99.90;;;;;;5057911;28;20028;-71
2022/01/18 01:07:26;;;;;;;58.72;40.22;;;26.20;99.90;;;;;;5059147;28;20025;-72
2022/01/18 01:09:54;;;;;;;58.92;41.08;;;26.20;99.90;;;;;;5053605;28;20032;-72
2022/01/18 01:12:24;;;;;;;64.68;42.30;;;26.20;99.90;;;;;;5065528;28;20385;-73
2022/01/18 01:14:52;;;;;;;64.43;40.92;;;26.30;99.90;;;;;;5069200;28;20504;-72
2022/01/18 01:33:29;;;;;;;71.68;49.50;;;26.70;99.90;;;;;;5054215;28;20029;-73
2022/01/18 01:44:20;;;;;;;64.63;49.42;;;27.20;99.90;;;;;;5066588;28;20461;-74
2022/01/18 01:46:34;;;;;;;74.38;46.63;;;27.20;99.90;;;;;;5068201;28;20032;-73
2022/01/18 01:49:03;;;;;;;74.93;51.75;;;27.30;99.90;;;;;;5054465;28;20166;-72
2022/01/18 01:51:30;;;;;;;70.15;53.58;;;27.40;99.90;;;;;;5054226;28;20037;-72
2022/01/18 01:54:02;;;;;;;76.85;48.50;;;27.50;99.90;;;;;;5057837;28;20017;-73
2022/01/18 01:56:30;;;;;;;73.00;50.92;;;27.50;99.90;;;;;;5061128;28;20093;-73
2022/01/18 01:58:58;;;;;;;61.67;44.97;;;27.60;99.90;;;;;;5060485;28;20035;-73
2022/01/18 02:01:24;;;;;;;61.65;40.92;;;27.60;99.90;;;;;;5055065;28;20437;-73
2022/01/18 02:03:51;;;;;;;59.70;41.28;;;27.50;99.90;;;;;;5052952;28;20075;-73
2022/01/18 02:06:18;;;;;;;61.35;38.42;;;27.40;99.90;;;;;;5053018;28;20020;-72
2022/01/18 02:08:45;;;;;;;56.92;40.13;;;27.50;99.90;;;;;;5052685;28;20131;-72
2022/01/18 02:11:12;;;;;;;60.58;41.33;;;27.50;99.90;;;;;;5054480;28;20047;-73
2022/01/18 02:13:40;;;;;;;59.70;38.55;;;27.60;99.90;;;;;;5053092;28;20052;-71
2022/01/18 02:16:15;;;;;;;48.60;34.97;;;27.60;99.90;;;;;;5052679;28;20098;-73
2022/01/18 02:24:00;;;;;;;67.78;43.50;;;27.50;99.90;;;;;;5052430;28;20112;-72
2022/01/18 02:26:26;;;;;;;58.10;37.05;;;27.50;99.90;;;;;;5054977;28;20089;-71
2022/01/18 02:28:54;;;;;;;48.92;32.80;;;27.60;99.90;;;;;;5063109;28;20029;-71
2022/01/18 02:31:20;;;;;;;48.30;30.40;;;27.60;99.90;;;;;;5054980;28;20104;-72
2022/01/18 02:33:47;;;;;;;42.63;29.80;;;27.50;99.90;;;;;;5056094;28;20029;-74
2022/01/18 02:36:14;;;;;;;36.03;27.48;;;27.60;99.90;;;;;;5056175;28;20021;-72
2022/01/18 02:38:40;;;;;;;42.85;29.67;;;27.60;99.90;;;;;;5073411;28;20052;-68
2022/01/18 02:41:07;;;;;;;47.58;30.90;;;27.70;99.90;;;;;;5058910;28;20499;-69
2022/01/18 02:46:13;;;;;;;80.00;60.42;;;27.80;99.90;;;;;;5056090;28;20485;-68
2022/01/18 02:48:39;;;;;;;82.20;58.63;;;27.90;99.90;;;;;;5056127;28;20233;-69
2022/01/18 02:51:06;;;;;;;105.57;68.63;;;28.00;99.90;;;;;;5065139;28;20061;-68
2022/01/18 02:53:35;;;;;;;55.22;38.72;;;28.00;99.90;;;;;;5065789;28;20021;-69
2022/01/18 02:56:02;;;;;;;100.03;73.80;;;28.00;99.90;;;;;;5057112;28;20086;-68
2022/01/18 02:58:33;;;;;;;55.33;37.60;;;28.10;99.90;;;;;;5063246;28;20108;-68
2022/01/18 03:03:37;;;;;;;39.88;27.92;;;28.20;99.90;;;;;;5063778;28;20435;-69
2022/01/18 03:06:06;;;;;;;42.22;28.17;;;28.30;99.90;;;;;;5063742;28;20103;-68
2022/01/18 03:08:34;;;;;;;40.75;29.08;;;28.20;99.90;;;;;;5057237;28;20025;-69
2022/01/18 03:11:02;;;;;;;61.45;33.58;;;28.20;99.90;;;;;;5063769;28;20103;-69
2022/01/18 03:13:30;;;;;;;45.10;29.45;;;28.30;99.90;;;;;;5076404;28;20436;-70
2022/01/18 03:15:56;;;;;;;46.13;28.10;;;28.40;99.90;;;;;;5065267;28;20028;-68
2022/01/18 03:18:23;;;;;;;46.10;30.48;;;28.30;99.90;;;;;;5061641;28;20028;-69
2022/01/18 03:20:50;;;;;;;40.70;26.55;;;28.20;99.90;;;;;;5071828;28;20362;-69
2022/01/18 03:23:20;;;;;;;57.42;45.85;;;28.30;99.90;;;;;;5062830;28;20402;-68
2022/01/18 03:25:58;;;;;;;84.47;59.90;;;28.40;99.90;;;;;;5075118;28;20023;-68
2022/01/18 03:28:27;;;;;;;58.65;46.65;;;28.40;99.90;;;;;;5057469;28;20531;-68
2022/01/18 03:30:57;;;;;;;66.20;46.53;;;28.50;99.90;;;;;;5055608;28;20033;-67
2022/01/18 03:33:28;;;;;;;47.05;34.83;;;28.40;99.90;;;;;;5063752;28;20035;-67
2022/01/18 03:35:55;;;;;;;73.97;55.85;;;28.30;99.90;;;;;;5057989;28;20029;-68
2022/01/18 03:38:29;;;;;;;49.47;34.63;;;28.20;99.90;;;;;;5061174;28;20027;-69
2022/01/18 03:40:58;;;;;;;121.55;96.60;;;28.20;99.90;;;;;;5054971;28;20041;-69
2022/01/18 03:43:25;;;;;;;56.58;38.10;;;28.30;99.90;;;;;;5054716;28;20461;-70
2022/01/18 03:45:55;;;;;;;47.78;31.80;;;28.30;99.90;;;;;;5061560;28;20027;-68
2022/01/18 03:48:33;;;;;;;56.38;43.47;;;28.40;99.90;;;;;;5075038;28;20431;-67
2022/01/18 03:51:01;;;;;;;61.33;42.67;;;28.50;99.90;;;;;;5061873;28;20470;-68
2022/01/18 03:53:28;;;;;;;101.05;69.35;;;28.50;99.90;;;;;;5062421;28;20041;-70
2022/01/18 03:55:55;;;;;;;49.90;35.55;;;28.50;99.90;;;;;;5066174;28;20024;-70
2022/01/18 03:58:22;;;;;;;334.60;267.08;;;28.50;99.90;;;;;;5054834;28;20033;-70
2022/01/18 04:00:50;;;;;;;43.67;30.05;;;28.60;99.90;;;;;;5069267;28;20111;-68
2022/01/18 04:03:18;;;;;;;61.67;45.50;;;28.60;99.90;;;;;;5072376;28;20389;-69
2022/01/18 04:05:46;;;;;;;53.50;36.80;;;28.60;99.90;;;;;;5059694;28;20029;-69
2022/01/18 04:08:13;;;;;;;49.83;40.28;;;28.60;99.90;;;;;;5074505;28;20048;-68
2022/01/18 04:10:40;;;;;;;50.80;34.42;;;28.70;99.90;;;;;;5071307;28;20139;-68
2022/01/18 04:13:06;;;;;;;115.72;88.35;;;28.80;99.90;;;;;;5064994;28;20025;-67
2022/01/18 04:15:34;;;;;;;120.95;89.10;;;28.90;99.90;;;;;;5055151;28;20104;-69
2022/01/18 04:18:11;;;;;;;47.67;33.88;;;28.90;99.90;;;;;;5064146;28;20024;-69
2022/01/18 04:26:04;;;;;;;43.00;24.75;;;28.80;99.90;;;;;;5056339;28;20025;-67
2022/01/18 04:28:44;;;;;;;37.58;22.98;;;28.70;99.90;;;;;;5054374;28;20385;-69
2022/01/18 04:31:11;;;;;;;35.50;24.08;;;28.60;99.90;;;;;;5060081;28;20492;-69
2022/01/18 04:33:38;;;;;;;38.42;24.00;;;28.60;99.90;;;;;;5055445;28;20087;-71
2022/01/18 04:36:06;;;;;;;33.33;20.63;;;28.50;99.90;;;;;;5056831;28;20162;-70
2022/01/18 04:38:34;;;;;;;29.15;21.95;;;28.50;99.90;;;;;;5057300;28;20116;-68
2022/01/18 04:41:07;;;;;;;32.10;22.58;;;28.50;99.90;;;;;;5068723;28;20496;-70
2022/01/18 04:48:52;;;;;;;40.30;27.65;;;28.50;99.90;;;;;;5061042;28;20044;-70
2022/01/18 04:51:20;;;;;;;72.20;56.88;;;28.50;99.90;;;;;;5069134;28;20043;-70
2022/01/18 04:53:53;;;;;;;42.20;29.35;;;28.50;99.90;;;;;;5070395;28;20025;-70
2022/01/18 04:58:59;;;;;;;40.72;28.73;;;28.60;99.90;;;;;;5057981;28;20025;-66
2022/01/18 05:01:26;;;;;;;39.72;26.58;;;28.60;99.90;;;;;;5058249;28;20032;-68
2022/01/18 05:03:53;;;;;;;35.08;22.17;;;28.60;99.90;;;;;;5071022;28;20377;-68
2022/01/18 05:06:20;;;;;;;37.33;21.25;;;28.50;99.90;;;;;;5062028;28;20154;-66
2022/01/18 05:08:47;;;;;;;33.70;21.63;;;28.50;99.90;;;;;;5060809;28;20031;-67
2022/01/18 05:11:18;;;;;;;36.65;22.45;;;28.60;99.90;;;;;;5071977;28;20043;-68
2022/01/18 05:16:48;;;;;;;35.15;22.17;;;28.60;99.90;;;;;;5057377;28;20497;-69
2022/01/18 05:24:24;;;;;;;38.13;23.50;;;28.60;99.90;;;;;;5062003;28;20021;-68
2022/01/18 05:26:52;;;;;;;48.80;33.47;;;28.60;99.90;;;;;;5058543;28;20021;-67
2022/01/18 05:29:20;;;;;;;37.97;23.42;;;28.70;99.90;;;;;;5063317;28;20036;-66
2022/01/18 05:31:47;;;;;;;38.80;24.80;;;28.80;99.90;;;;;;5060593;28;20130;-65
2022/01/18 05:34:14;;;;;;;35.67;23.23;;;28.90;99.90;;;;;;5061066;28;20537;-68
2022/01/18 05:36:41;;;;;;;29.10;20.40;;;29.00;99.90;;;;;;5059777;28;20413;-66
2022/01/18 05:39:09;;;;;;;26.67;18.95;;;28.90;99.90;;;;;;5065792;28;20565;-67
2022/01/18 05:41:38;;;;;;;32.38;20.48;;;28.90;99.90;;;;;;5058166;28;20032;-67
2022/01/18 05:44:06;;;;;;;28.55;19.85;;;28.80;99.90;;;;;;5060640;28;20028;-67
2022/01/18 05:46:33;;;;;;;35.53;18.90;;;28.80;99.90;;;;;;5060247;28;20092;-66
2022/01/18 05:49:01;;;;;;;28.33;18.58;;;28.70;99.90;;;;;;5060006;28;20021;-66
2022/01/18 05:51:28;;;;;;;35.72;20.02;;;28.70;99.90;;;;;;5062653;28;20033;-66
2022/01/18 05:53:55;;;;;;;33.53;20.80;;;28.80;99.90;;;;;;5061738;28;20397;-68
2022/01/18 05:56:22;;;;;;;150.85;103.10;;;28.90;99.90;;;;;;5060594;28;20033;-66
2022/01/18 05:58:49;;;;;;;73.38;52.88;;;29.00;99.90;;;;;;5060258;28;20013;-66
2022/01/18 06:01:25;;;;;;;31.13;20.05;;;29.10;99.90;;;;;;5061586;28;20036;-67
2022/01/18 06:09:03;;;;;;;27.23;19.80;;;29.10;99.90;;;;;;5063796;28;20202;-66
2022/01/18 06:11:30;;;;;;;37.85;22.25;;;29.00;99.90;;;;;;5064158;28;20123;-68
2022/01/18 06:13:57;;;;;;;38.35;21.25;;;29.10;99.90;;;;;;5067552;28;20511;-68
2022/01/18 06:16:23;;;;;;;25.48;17.48;;;29.10;99.90;;;;;;5066417;28;20021;-67
2022/01/18 06:18:50;;;;;;;29.65;17.52;;;29.10;99.90;;;;;;5062370;28;20037;-67
2022/01/18 06:21:17;;;;;;;22.65;16.30;;;29.10;99.90;;;;;;5059874;28;20048;-75
2022/01/18 06:23:43;;;;;;;22.92;16.95;;;29.10;99.90;;;;;;5063320;28;20017;-74
2022/01/18 06:26:14;;;;;;;31.27;18.27;;;29.10;99.90;;;;;;5064698;28;20024;-72
2022/01/18 06:28:42;;;;;;;39.35;18.42;;;29.10;99.90;;;;;;5066849;28;20042;-73
2022/01/18 06:31:09;;;;;;;29.83;17.42;;;29.20;99.90;;;;;;5060917;28;20077;-74
2022/01/18 06:33:36;;;;;;;24.60;16.92;;;29.30;99.90;;;;;;5065418;28;20385;-71
2022/01/18 06:36:03;;;;;;;50.33;32.40;;;29.30;99.90;;;;;;5065400;28;20016;-71
2022/01/18 06:38:30;;;;;;;33.75;25.00;;;29.40;99.90;;;;;;5059448;28;20115;-71
2022/01/18 06:40:56;;;;;;;27.00;15.98;;;29.30;99.90;;;;;;5065890;28;20043;-72
2022/01/18 06:43:23;;;;;;;23.70;16.52;;;29.30;99.90;;;;;;5064127;28;20078;-71
2022/01/18 06:45:50;;;;;;;27.85;16.23;;;29.30;99.90;;;;;;5067007;28;20028;-70
2022/01/18 06:48:17;;;;;;;24.40;16.80;;;29.40;99.90;;;;;;5065772;28;20017;-70
2022/01/18 06:50:43;;;;;;;22.17;13.80;;;29.30;99.90;;;;;;5064317;28;20025;-70
2022/01/18 06:53:10;;;;;;;19.92;13.60;;;29.30;99.90;;;;;;5059358;28;20032;-71
2022/01/18 06:55:37;;;;;;;34.58;16.23;;;29.30;99.90;;;;;;5058202;28;20029;-70
2022/01/18 06:58:04;;;;;;;27.10;18.67;;;29.40;99.90;;;;;;5063968;28;20025;-72
2022/01/18 07:00:30;;;;;;;29.60;15.80;;;29.40;99.90;;;;;;5058063;28;20455;-72
2022/01/18 07:02:57;;;;;;;30.65;18.67;;;29.40;99.90;;;;;;5063802;28;20063;-71
2022/01/18 07:05:24;;;;;;;27.48;16.52;;;29.40;99.90;;;;;;5072428;28;20055;-71
2022/01/18 07:07:50;;;;;;;22.45;13.90;;;29.50;99.90;;;;;;5061800;28;20478;-73
2022/01/18 07:10:17;;;;;;;25.48;14.65;;;29.60;99.90;;;;;;5056629;28;20033;-73
2022/01/18 07:12:44;;;;;;;28.38;15.25;;;29.70;99.90;;;;;;5061223;28;20100;-71
2022/01/18 07:15:11;;;;;;;22.23;13.88;;;29.70;99.90;;;;;;5067340;28;20042;-70
2022/01/18 07:17:38;;;;;;;25.50;14.75;;;29.80;99.90;;;;;;5065205;28;20032;-70
2022/01/18 07:20:06;;;;;;;20.40;14.52;;;29.90;99.90;;;;;;5060987;28;20029;-68
2022/01/18 07:22:34;;;;;;;25.60;13.32;;;30.00;99.90;;;;;;5068236;28;20111;-70
2022/01/18 07:25:02;;;;;;;20.70;12.90;;;30.00;99.90;;;;;;5071842;28;20017;-72
2022/01/18 07:27:29;;;;;;;24.27;12.77;;;30.00;99.90;;;;;;5066980;28;20543;-71
2022/01/18 07:29:55;;;;;;;18.58;12.65;;;30.00;99.90;;;;;;5056693;28;20035;-70
2022/01/18 07:32:22;;;;;;;24.15;13.38;;;30.00;99.90;;;;;;5059102;28;20033;-72
2022/01/18 07:34:52;;;;;;;19.88;12.02;;;30.00;99.90;;;;;;5059250;28;20116;-72
2022/01/18 07:37:21;;;;;;;23.60;12.15;;;30.00;99.90;;;;;;5069160;28;20033;-69
2022/01/18 07:39:49;;;;;;;17.92;11.60;;;30.00;99.90;;;;;;5064807;28;20385;-70
2022/01/18 07:42:17;;;;;;;20.58;12.32;;;30.00;99.90;;;;;;5068597;28;20249;-70
2022/01/18 07:44:44;;;;;;;24.40;12.65;;;30.00;99.90;;;;;;5062081;28;20021;-69
2022/01/18 07:47:10;;;;;;;18.85;11.38;;;30.00;99.90;;;;;;5061382;28;20028;-70
2022/01/18 07:49:38;;;;;;;24.35;13.50;;;29.90;99.90;;;;;;5062232;28;20103;-70
2022/01/18 07:52:04;;;;;;;22.13;12.93;;;29.90;99.90;;;;;;5061305;28;20029;-70
2022/01/18 07:54:31;;;;;;;19.15;11.82;;;30.00;99.90;;;;;;5067307;28;20055;-70
2022/01/18 07:56:58;;;;;;;17.67;10.50;;;30.10;99.90;;;;;;5061940;28;20163;-70
2022/01/18 07:59:27;;;;;;;22.90;12.00;;;30.10;99.90;;;;;;5064455;28;20017;-72
2022/01/18 08:01:55;;;;;;;21.38;11.73;;;30.10;99.90;;;;;;5062584;28;20052;-69
2022/01/18 08:04:22;;;;;;;20.17;10.68;;;30.10;99.90;;;;;;5062639;28;20029;-71
2022/01/18 08:06:49;;;;;;;20.95;11.25;;;30.00;99.90;;;;;;5055951;28;20163;-70
2022/01/18 08:09:18;;;;;;;20.08;10.18;;;30.00;99.90;;;;;;5053494;28;20048;-71
2022/01/18 08:11:46;;;;;;;20.20;10.85;;;30.10;99.90;;;;;;5055620;28;20036;-70
2022/01/18 08:14:14;;;;;;;17.35;9.55;;;30.30;99.90;;;;;;5055639;28;20115;-69
2022/01/18 08:16:59;;;;;;;18.73;9.68;;;30.30;99.90;;;;;;5060974;28;20029;-68
2022/01/18 08:19:31;;;;;;;11.48;7.95;;;30.40;99.90;;;;;;5054836;28;20059;-68
2022/01/18 08:21:58;;;;;;;;;;;30.40;99.90;;;;;;5055231;28;20484;-68
2022/01/18 08:24:26;;;;;;;12.02;7.78;;;30.40;99.90;;;;;;5070526;28;19908;-69
2022/01/18 08:26:53;;;;;;;15.85;9.00;;;30.20;99.90;;;;;;5056194;28;20021;-71
2022/01/18 08:29:20;;;;;;;20.08;9.40;;;30.30;99.90;;;;;;5055338;28;20056;-71
2022/01/18 08:31:47;;;;;;;16.35;9.45;;;30.20;99.90;;;;;;5054512;28;20060;-68
2022/01/18 08:34:15;;;;;;;17.90;8.80;;;30.20;99.80;;;;;;5073825;28;20485;-68
2022/01/18 08:36:42;;;;;;;12.85;8.63;;;30.10;99.00;;;;;;5059630;28;20500;-67
2022/01/18 08:39:09;;;;;;;16.42;8.38;;;30.10;99.20;;;;;;5066865;28;20127;-69
2022/01/18 08:41:36;;;;;;;18.90;8.75;;;30.10;99.30;;;;;;5077032;28;20023;-68
2022/01/18 08:44:04;;;;;;;15.90;8.30;;;30.20;98.80;;;;;;5071321;23;20059;-69
2022/01/18 08:46:30;;;;;;;22.33;9.27;;;30.30;97.80;;;;;;5033794;28;20025;-68
2022/01/18 08:48:57;;;;;;;14.27;7.80;;;30.30;98.30;;;;;;5034598;28;20025;-68
2022/01/18 08:51:24;;;;;;;10.27;7.50;;;30.20;96.90;;;;;;5034248;28;20116;-68
2022/01/18 08:53:51;;;;;;;15.68;9.30;;;30.10;97.50;;;;;;5034386;28;20045;-68
2022/01/18 08:56:19;;;;;;;15.10;8.27;;;30.00;97.50;;;;;;5034127;28;20047;-68
2022/01/18 08:58:46;;;;;;;22.77;9.40;;;30.00;97.50;;;;;;5023706;28;20014;-69
2022/01/18 09:01:14;;;;;;;12.50;7.97;;;29.90;97.60;;;;;;5029700;28;20029;-69
2022/01/18 09:03:41;;;;;;;17.33;9.85;;;29.90;98.20;;;;;;5032248;28;20033;-70
2022/01/18 09:06:12;;;;;;;16.83;9.15;;;29.90;97.60;;;;;;5014207;28;20446;-71
2022/01/18 09:08:41;;;;;;;20.20;11.35;;;29.90;97.50;;;;;;5031420;28;20375;-70
2022/01/18 09:11:11;;;;;;;26.92;17.77;;;29.90;96.60;;;;;;5033279;28;20356;-69
2022/01/18 09:13:39;;;;;;;38.53;22.35;;;29.80;97.50;;;;;;5033208;28;20270;-70
2022/01/18 09:16:09;;;;;;;33.22;20.30;;;29.80;98.10;;;;;;5026950;28;20033;-69
2022/01/18 09:18:37;;;;;;;27.50;16.65;;;29.70;97.40;;;;;;5032848;28;20075;-69
2022/01/18 09:21:04;;;;;;;64.00;42.28;;;29.70;97.00;;;;;;5032220;28;20025;-72
2022/01/18 09:23:31;;;;;;;71.43;42.92;;;29.70;97.70;;;;;;5033285;28;20017;-71
2022/01/18 09:25:58;;;;;;;66.80;41.78;;;29.70;97.90;;;;;;5032962;28;20025;-70
2022/01/18 09:28:25;;;;;;;28.23;17.42;;;29.70;98.00;;;;;;5032832;28;20021;-70
2022/01/18 09:30:52;;;;;;;22.55;15.05;;;29.70;97.70;;;;;;5032892;28;20021;-70
2022/01/18 09:33:19;;;;;;;132.00;81.90;;;29.70;97.40;;;;;;5032797;28;20078;-69
2022/01/18 09:35:45;;;;;;;34.92;23.67;;;29.70;98.20;;;;;;5027391;28;20029;-72
2022/01/18 09:38:12;;;;;;;35.60;21.45;;;29.60;97.70;;;;;;5035071;28;20018;-70
2022/01/18 09:40:39;;;;;;;52.40;36.10;;;29.50;98.10;;;;;;5037239;28;20021;-74
2022/01/18 09:43:12;;;;;;;21.55;12.23;;;29.40;98.20;;;;;;5036891;28;20047;-72
2022/01/18 09:45:44;;;;;;;20.65;11.45;;;29.40;98.80;;;;;;5038461;28;20017;-69
2022/01/18 09:48:13;;;;;;;257.50;172.20;;;29.40;99.40;;;;;;5044419;28;20028;-70
2022/01/18 09:50:42;;;;;;;114.30;84.43;;;29.30;98.60;;;;;;5057452;28;20032;-69
2022/01/18 09:53:10;;;;;;;27.90;15.52;;;29.30;99.50;;;;;;5041532;28;20029;-71
2022/01/18 09:55:39;;;;;;;30.55;17.70;;;29.30;99.90;;;;;;5037078;28;20527;-70
2022/01/18 09:58:09;;;;;;;29.33;13.98;;;29.20;99.90;;;;;;5032509;28;20041;-69
2022/01/18 10:00:40;;;;;;;20.48;11.10;;;29.20;99.90;;;;;;5034950;28;20049;-69
2022/01/18 10:03:20;;;;;;;22.08;12.32;;;29.10;99.90;;;;;;5037005;28;20032;-70
2022/01/18 10:05:50;;;;;;;68.28;17.52;;;29.20;99.90;;;;;;5030742;28;20084;-68
2022/01/18 10:08:18;;;;;;;23.00;12.60;;;29.20;99.90;;;;;;5036983;28;20032;-69
2022/01/18 10:10:51;;;;;;;19.98;11.52;;;29.10;99.90;;;;;;5032185;28;20083;-69
2022/01/18 10:13:22;;;;;;;83.68;55.35;;;29.10;99.90;;;;;;5020569;28;20459;-70
2022/01/18 10:15:56;;;;;;;65.07;42.70;;;29.10;99.90;;;;;;5021379;28;20021;-65
2022/01/18 10:18:34;;;;;;;36.65;25.92;;;29.00;99.90;;;;;;5037298;28;20018;-69
2022/01/18 10:21:01;;;;;;;27.77;14.90;;;29.00;99.90;;;;;;5036338;28;20151;-66
2022/01/18 10:23:28;;;;;;;126.90;88.55;;;29.00;99.90;;;;;;5036837;28;20029;-66
2022/01/18 10:25:55;;;;;;;45.95;28.88;;;29.10;99.90;;;;;;5033455;28;20033;-68
2022/01/18 10:28:30;;;;;;;79.90;51.22;;;29.10;99.90;;;;;;5029157;28;20033;-68
2022/01/18 10:31:00;;;;;;;46.65;31.95;;;29.10;99.90;;;;;;5016436;28;20034;-68
2022/01/18 10:33:35;;;;;;;31.40;16.73;;;29.10;99.90;;;;;;5029499;28;20036;-69
2022/01/18 10:36:14;;;;;;;28.55;17.67;;;29.10;99.90;;;;;;5036201;28;20082;-68
2022/01/18 10:38:41;;;;;;;36.38;23.90;;;29.10;99.90;;;;;;5036587;28;20032;-68
2022/01/18 10:41:30;;;;;;;55.28;32.58;;;29.10;99.90;;;;;;5036057;28;20034;-69
2022/01/18 10:44:11;;;;;;;44.28;28.55;;;29.10;99.90;;;;;;5036042;28;20128;-68
2022/01/18 10:46:51;;;;;;;31.75;19.70;;;29.00;99.90;;;;;;5029790;28;20101;-69
2022/01/18 10:49:29;;;;;;;50.53;29.60;;;28.90;99.90;;;;;;5025261;28;20032;-67
2022/01/18 10:51:59;;;;;;;79.20;51.88;;;29.00;99.90;;;;;;5035416;28;20030;-68
2022/01/18 10:54:41;;;;;;;88.65;53.60;;;28.90;99.90;;;;;;5034911;28;20102;-68
2022/01/18 10:57:11;;;;;;;79.97;48.67;;;28.90;99.90;;;;;;5035679;28;20072;-67
2022/01/18 10:59:41;;;;;;;64.63;35.25;;;28.90;99.90;;;;;;5036125;28;20453;-67
2022/01/18 11:02:13;;;;;;;63.35;36.97;;;28.90;99.90;;;;;;5035116;28;20021;-67
2022/01/18 11:04:42;;;;;;;65.95;42.22;;;28.90;99.90;;;;;;5035793;28;20474;-69
2022/01/18 11:07:10;;;;;;;71.95;41.95;;;28.80;99.90;;;;;;5034558;28;20029;-69
2022/01/18 11:09:36;;;;;;;79.78;48.72;;;28.80;99.90;;;;;;5035669;28;20474;-71
2022/01/18 11:12:05;;;;;;;80.53;44.70;;;28.80;99.90;;;;;;5035777;28;20479;-73
2022/01/18 11:14:33;;;;;;;79.65;46.30;;;28.70;99.90;;;;;;5035418;28;20482;-72
2022/01/18 11:17:02;;;;;;;42.53;26.48;;;28.60;99.90;;;;;;5034123;28;20120;-69
2022/01/18 11:19:33;;;;;;;38.10;23.35;;;28.30;99.90;;;;;;5039170;28;20028;-73
2022/01/18 11:22:03;;;;;;;38.75;23.30;;;28.10;99.90;;;;;;5030250;28;20052;-72
2022/01/18 11:24:31;;;;;;;40.05;24.17;;;28.00;99.90;;;;;;5034391;28;20037;-72
2022/01/18 11:26:59;;;;;;;35.67;23.15;;;27.90;99.90;;;;;;5034291;28;20430;-72
2022/01/18 11:29:26;;;;;;;43.45;23.10;;;27.80;99.90;;;;;;5028987;28;20029;-70
2022/01/18 11:31:55;;;;;;;40.75;24.40;;;27.80;99.90;;;;;;5039310;28;20024;-70
2022/01/18 11:34:36;;;;;;;47.60;23.67;;;27.80;99.90;;;;;;5032825;28;20036;-69
2022/01/18 11:37:09;;;;;;;44.00;26.02;;;27.70;99.90;;;;;;5033858;28;20120;-70
2022/01/18 11:39:36;;;;;;;45.80;26.17;;;27.70;99.90;;;;;;5031112;28;20382;-70
2022/01/18 11:42:08;;;;;;;42.55;25.88;;;27.70;99.90;;;;;;5032679;28;20032;-70
2022/01/18 11:44:35;;;;;;;44.03;27.05;;;27.70;99.90;;;;;;5032806;28;20179;-71
2022/01/18 11:47:03;;;;;;;42.38;26.35;;;27.70;99.90;;;;;;5030093;28;20026;-70
2022/01/18 11:49:32;;;;;;;54.85;28.00;;;27.70;99.90;;;;;;5034331;28;20033;-71
2022/01/18 11:52:05;;;;;;;42.28;28.55;;;27.60;99.90;;;;;;5030474;28;20106;-69
2022/01/18 11:57:04;;;;;;;39.38;24.73;;;27.60;99.90;;;;;;5033344;28;20108;-70
2022/01/18 11:59:40;;;;;;;38.08;24.02;;;27.50;99.90;;;;;;5031702;28;20029;-70
2022/01/18 12:02:08;;;;;;;42.28;25.42;;;27.50;99.90;;;;;;5030281;28;20032;-70
2022/01/18 12:04:56;;;;;;;35.92;24.65;;;27.50;99.90;;;;;;5031136;28;20040;-70
2022/01/18 12:07:37;;;;;;;32.42;23.95;;;27.40;99.90;;;;;;5041430;28;20096;-73
2022/01/18 12:10:42;;;;;;;36.05;26.73;;;27.40;99.90;;;;;;5026969;28;20029;-70
2022/01/18 12:13:14;;;;;;;37.03;28.05;;;27.40;99.90;;;;;;5031732;28;20048;-67
2022/01/18 12:15:41;;;;;;;48.40;29.30;;;27.40;99.90;;;;;;5033936;28;20048;-71
2022/01/18 12:18:11;;;;;;;42.20;28.77;;;27.50;99.90;;;;;;5032554;28;20524;-71
2022/01/18 12:20:39;;;;;;;50.08;31.98;;;27.40;99.90;;;;;;5034032;28;20029;-71
2022/01/18 12:23:12;;;;;;;47.28;34.22;;;27.30;99.90;;;;;;5033228;28;20025;-72
2022/01/18 12:28:47;;;;;;;47.83;30.15;;;27.30;99.90;;;;;;5029666;28;20033;-70
2022/01/18 12:34:40;;;;;;;42.60;29.98;;;27.40;99.90;;;;;;5029789;28;20040;-70
2022/01/18 12:37:10;;;;;;;46.78;32.08;;;27.40;99.90;;;;;;5030267;28;20481;-76
2022/01/18 12:39:57;;;;;;;42.85;29.75;;;27.40;99.90;;;;;;5033687;28;20104;-71
2022/01/18 12:45:11;;;;;;;43.58;31.52;;;27.40;99.90;;;;;;5029608;28;20041;-69
2022/01/18 12:47:41;;;;;;;40.22;28.13;;;27.40;99.90;;;;;;5030457;28;20022;-70
2022/01/18 12:50:11;;;;;;;41.28;29.70;;;27.30;99.90;;;;;;5033852;28;20028;-70
2022/01/18 12:52:44;;;;;;;54.85;35.22;;;27.30;99.90;;;;;;5030429;28;20029;-70
2022/01/18 12:55:18;;;;;;;54.75;40.45;;;27.30;99.90;;;;;;5034177;28;20033;-70
2022/01/18 12:58:00;;;;;;;61.50;42.20;;;27.20;99.90;;;;;;5030977;28;20056;-70
2022/01/18 13:00:27;;;;;;;62.20;39.53;;;27.20;99.90;;;;;;5032861;28;20025;-70
2022/01/18 13:02:59;;;;;;;55.05;39.08;;;27.30;99.90;;;;;;5033721;28;20037;-72
2022/01/18 13:05:38;;;;;;;53.33;36.60;;;27.20;99.90;;;;;;5015309;28;20033;-71
2022/01/18 13:08:06;;;;;;;47.65;35.08;;;27.20;99.90;;;;;;5013917;28;20025;-70
2022/01/18 13:10:46;;;;;;;59.80;35.88;;;27.20;99.90;;;;;;5021639;28;20029;-71
2022/01/18 13:13:16;;;;;;;54.55;35.47;;;27.10;99.90;;;;;;5033296;28;20044;-71
2022/01/18 13:15:52;;;;;;;56.10;37.60;;;27.10;99.90;;;;;;5028885;28;20068;-71
2022/01/18 13:23:57;;;;;;;48.67;34.70;;;27.10;99.90;;;;;;5029745;28;20049;-69
2022/01/18 13:26:41;;;;;;;;;;;27.10;99.90;;;;;;5030087;28;20034;-70
2022/01/18 13:29:14;;;;;;;60.70;38.90;;;27.20;99.90;;;;;;5015158;28;20278;-69
2022/01/18 13:31:44;;;;;;;69.60;41.30;;;27.10;99.90;;;;;;5021240;28;20021;-69
2022/01/18 13:34:13;;;;;;;84.15;47.38;;;27.00;99.90;;;;;;5034267;28;20062;-70
2022/01/18 13:36:52;;;;;;;86.43;49.10;;;27.00;99.90;;;;;;5032180;28;20029;-68
2022/01/18 13:39:30;;;;;;;90.38;51.03;;;27.00;99.90;;;;;;5035488;28;20064;-70
2022/01/18 13:42:00;;;;;;;90.20;50.45;;;27.10;99.90;;;;;;5028769;28;20030;-67
2022/01/18 13:44:32;;;;;;;87.35;47.97;;;27.20;99.90;;;;;;5022014;28;20179;-70
2022/01/18 13:47:09;;;;;;;;;;;27.10;99.90;;;;;;5033593;28;20028;-70
2022/01/18 13:49:37;;;;;;;216.75;138.30;;;27.10;99.90;;;;;;5031861;28;19988;-69
2022/01/18 13:52:12;;;;;;;84.18;50.45;;;27.10;99.90;;;;;;5033392;28;20087;-70
2022/01/18 13:54:51;;;;;;;86.55;51.90;;;27.20;99.90;;;;;;5034518;28;20045;-68
2022/01/18 13:57:22;;;;;;;101.15;64.55;;;27.20;99.90;;;;;;5034033;28;20068;-69
2022/01/18 13:59:51;;;;;;;119.65;71.15;;;27.20;99.90;;;;;;5034782;28;20068;-69
2022/01/18 14:02:20;;;;;;;114.43;71.13;;;27.20;99.90;;;;;;5034116;28;20021;-70